sensor_id;sensor_type;location;lat;lon;timestamp;pressure;altitude;pressure_sealevel;temperature;humidity
3590;BME280;1809;48.470;9.226;2023-03-03T00:02:11;116023.34;;;2.48;100.00
3590;BME280;1809;48.470;9.226;2023-03-03T00:04:37;116372.69;;;2.53;100.00
3590;BME280;1809;48.470;9.226;2023-03-03T00:07:02;116373.66;;;2.53;100.00
3590;BME280;1809;48.470;9.226;2023-03-03T00:09:27;116031.06;;;2.52;100.00
3590;BME280;1809;48.470;9.226;2023-03-03T00:11:58;115693.28;;;2.53;100.00
3590;BME280;1809;48.470;9.226;2023-03-03T00:14:28;115696.19;;;2.54;100.00
3590;BME280;1809;48.470;9.226;2023-03-03T00:16:55;115352.66;;;2.52;100.00
3590;BME280;1809;48.470;9.226;2023-03-03T00:19:21;115357.47;;;2.55;100.00
3590;BME280;1809;48.470;9.226;2023-03-03T00:21:48;115017.81;;;2.55;100.00
3590;BME280;1809;48.470;9.226;2023-03-03T00:24:23;115018.75;;;2.55;100.00
3590;BME280;1809;48.470;9.226;2023-03-03T00:26:54;115019.72;;;2.56;100.00
3590;BME280;1809;48.470;9.226;2023-03-03T00:31:48;115705.75;;;2.59;100.00
3590;BME280;1809;48.470;9.226;2023-03-03T00:36:43;115708.66;;;2.61;100.00
3590;BME280;1809;48.470;9.226;2023-03-03T00:39:28;115716.31;;;2.65;100.00
3590;BME280;1809;48.470;9.226;2023-03-03T00:41:54;115378.50;;;2.66;100.00
3590;BME280;1809;48.470;9.226;2023-03-03T00:44:45;115378.50;;;2.66;100.00
3590;BME280;1809;48.470;9.226;2023-03-03T00:49:41;115387.13;;;2.70;100.00
3590;BME280;1809;48.470;9.226;2023-03-03T00:52:16;115391.91;;;2.73;100.00
3590;BME280;1809;48.470;9.226;2023-03-03T00:54:41;115395.72;;;2.75;100.00
3590;BME280;1809;48.470;9.226;2023-03-03T00:57:07;115397.66;;;2.76;100.00
3590;BME280;1809;48.470;9.226;2023-03-03T00:59:32;115406.25;;;2.81;100.00
3590;BME280;1809;48.470;9.226;2023-03-03T01:01:57;114377.50;;;2.76;100.00
3590;BME280;1809;48.470;9.226;2023-03-03T01:04:23;113699.16;;;2.76;100.00
3590;BME280;1809;48.470;9.226;2023-03-03T01:06:48;113357.69;;;2.75;100.00
3590;BME280;1809;48.470;9.226;2023-03-03T01:09:13;112659.91;;;2.65;100.00
3590;BME280;1809;48.470;9.226;2023-03-03T01:11:39;112675.81;;;2.74;100.00
3590;BME280;1809;48.470;9.226;2023-03-03T01:14:04;111994.06;;;2.72;100.00
3590;BME280;1809;48.470;9.226;2023-03-03T01:16:30;111655.59;;;2.72;100.00
3590;BME280;1809;48.470;9.226;2023-03-03T01:18:55;112009.84;;;2.81;100.00
3590;BME280;1809;48.470;9.226;2023-03-03T01:21:21;110983.28;;;2.76;100.00
3590;BME280;1809;48.470;9.226;2023-03-03T01:23:46;110975.94;;;2.72;100.00
3590;BME280;1809;48.470;9.226;2023-03-03T01:26:11;111302.34;;;2.65;100.00
3590;BME280;1809;48.470;9.226;2023-03-03T01:28:37;112316.75;;;2.63;100.00
3590;BME280;1809;48.470;9.226;2023-03-03T01:31:04;112656.19;;;2.63;100.00
3590;BME280;1809;48.470;9.226;2023-03-03T01:33:29;112986.28;;;2.58;100.00
3590;BME280;1809;48.470;9.226;2023-03-03T01:35:56;112976.88;;;2.53;100.00
3590;BME280;1809;48.470;9.226;2023-03-03T01:38:21;113989.63;;;2.50;100.00
3590;BME280;1809;48.470;9.226;2023-03-03T01:40:54;115685.63;;;2.49;100.00
3590;BME280;1809;48.470;9.226;2023-03-03T01:43:20;116698.94;;;2.46;100.00
3590;BME280;1809;48.470;9.226;2023-03-03T01:48:33;118050.28;;;2.42;100.00
3590;BME280;1809;48.470;9.226;2023-03-03T01:51:37;118384.25;;;2.39;100.00
3590;BME280;1809;48.470;9.226;2023-03-03T01:54:08;118709.34;;;2.31;100.00
3590;BME280;1809;48.470;9.226;2023-03-03T01:56:35;119727.06;;;2.30;100.00
3590;BME280;1809;48.470;9.226;2023-03-03T01:59:14;119720.09;;;2.27;100.00
3590;BME280;1809;48.470;9.226;2023-03-03T02:01:41;120386.00;;;2.20;100.00
3590;BME280;1809;48.470;9.226;2023-03-03T02:04:07;121057.91;;;2.15;100.00
3590;BME280;1809;48.470;9.226;2023-03-03T02:06:36;121381.81;;;2.07;100.00
3590;BME280;1809;48.470;9.226;2023-03-03T02:09:11;122424.25;;;2.18;100.00
3590;BME280;1809;48.470;9.226;2023-03-03T02:11:40;122741.97;;;2.07;100.00
3590;BME280;1809;48.470;9.226;2023-03-03T02:14:07;123436.63;;;2.14;100.00
3590;BME280;1809;48.470;9.226;2023-03-03T02:16:33;123772.72;;;2.12;100.00
3590;BME280;1809;48.470;9.226;2023-03-03T02:18:58;124100.59;;;2.06;100.00
3590;BME280;1809;48.470;9.226;2023-03-03T02:21:24;125124.59;;;2.08;100.00
3590;BME280;1809;48.470;9.226;2023-03-03T02:26:23;126850.97;;;2.20;100.00
3590;BME280;1809;48.470;9.226;2023-03-03T02:28:49;126853.09;;;2.21;100.00
3590;BME280;1809;48.470;9.226;2023-03-03T02:31:18;125821.00;;;2.15;100.00
3590;BME280;1809;48.470;9.226;2023-03-03T02:33:46;124797.75;;;2.14;100.00
3590;BME280;1809;48.470;9.226;2023-03-03T02:36:32;124103.72;;;2.08;100.00
3590;BME280;1809;48.470;9.226;2023-03-03T02:41:38;124436.72;;;2.04;100.00
3590;BME280;1809;48.470;9.226;2023-03-03T02:44:07;124108.88;;;2.10;100.00
3590;BME280;1809;48.470;9.226;2023-03-03T02:46:39;123417.13;;;2.05;100.00
3590;BME280;1809;48.470;9.226;2023-03-03T02:49:06;123405.81;;;1.99;100.00
3590;BME280;1809;48.470;9.226;2023-03-03T02:51:32;123743.94;;;1.98;100.00
3590;BME280;1809;48.470;9.226;2023-03-03T02:53:57;124449.13;;;2.10;100.00
3590;BME280;1809;48.470;9.226;2023-03-03T02:56:23;123764.53;;;2.08;100.00
3590;BME280;1809;48.470;9.226;2023-03-03T02:58:49;123419.16;;;2.06;100.00
3590;BME280;1809;48.470;9.226;2023-03-03T03:01:14;123071.84;;;2.02;100.00
3590;BME280;1809;48.470;9.226;2023-03-03T03:03:39;123077.00;;;2.05;100.00
3590;BME280;1809;48.470;9.226;2023-03-03T03:06:05;123422.25;;;2.07;100.00
3590;BME280;1809;48.470;9.226;2023-03-03T03:08:30;123424.31;;;2.08;100.00
3590;BME280;1809;48.470;9.226;2023-03-03T03:10:56;123081.06;;;2.07;100.00
3590;BME280;1809;48.470;9.226;2023-03-03T03:13:22;123782.00;;;2.17;100.00
3590;BME280;1809;48.470;9.226;2023-03-03T03:15:48;122763.38;;;2.18;100.00
3590;BME280;1809;48.470;9.226;2023-03-03T03:18:14;122083.09;;;2.18;100.00
3590;BME280;1809;48.470;9.226;2023-03-03T03:20:39;121747.09;;;2.20;100.00
3590;BME280;1809;48.470;9.226;2023-03-03T03:23:07;121412.06;;;2.23;100.00
3590;BME280;1809;48.470;9.226;2023-03-03T03:25:32;120734.00;;;2.24;100.00
3590;BME280;1809;48.470;9.226;2023-03-03T03:27:58;119722.06;;;2.28;100.00
3590;BME280;1809;48.470;9.226;2023-03-03T03:30:23;118346.91;;;2.20;100.00
3590;BME280;1809;48.470;9.226;2023-03-03T03:32:49;118017.94;;;2.25;100.00
3590;BME280;1809;48.470;9.226;2023-03-03T03:35:14;116994.00;;;2.23;100.00
3590;BME280;1809;48.470;9.226;2023-03-03T03:37:41;116648.56;;;2.20;100.00
3590;BME280;1809;48.470;9.226;2023-03-03T03:40:07;116657.28;;;2.24;100.00
3590;BME280;1809;48.470;9.226;2023-03-03T03:42:32;115647.22;;;2.29;100.00
3590;BME280;1809;48.470;9.226;2023-03-03T03:44:57;113928.19;;;2.17;100.00
3590;BME280;1809;48.470;9.226;2023-03-03T03:47:23;113589.84;;;2.17;100.00
3590;BME280;1809;48.470;9.226;2023-03-03T03:49:48;113254.31;;;2.20;100.00
3590;BME280;1809;48.470;9.226;2023-03-03T03:52:13;112574.00;;;2.18;100.00
3590;BME280;1809;48.470;9.226;2023-03-03T03:54:39;111211.03;;;2.15;100.00
3590;BME280;1809;48.470;9.226;2023-03-03T03:57:04;111214.75;;;2.17;100.00
3590;BME280;1809;48.470;9.226;2023-03-03T03:59:30;111224.91;;;2.23;100.00
3590;BME280;1809;48.470;9.226;2023-03-03T04:01:55;110218.75;;;2.29;100.00
3590;BME280;1809;48.470;9.226;2023-03-03T04:04:21;108512.41;;;2.22;100.00
3590;BME280;1809;48.470;9.226;2023-03-03T04:06:46;108173.59;;;2.22;100.00
3590;BME280;1809;48.470;9.226;2023-03-03T04:09:11;107820.56;;;2.14;100.00
3590;BME280;1809;48.470;9.226;2023-03-03T04:11:37;107830.38;;;2.20;100.00
3590;BME280;1809;48.470;9.226;2023-03-03T04:14:02;108165.56;;;2.17;100.00
3590;BME280;1809;48.470;9.226;2023-03-03T04:16:27;108172.69;;;2.22;100.00
3590;BME280;1809;48.470;9.226;2023-03-03T04:18:53;107484.53;;;2.15;100.00
3590;BME280;1809;48.470;9.226;2023-03-03T04:21:18;108176.31;;;2.24;100.00
3590;BME280;1809;48.470;9.226;2023-03-03T04:23:44;107497.00;;;2.23;100.00
3590;BME280;1809;48.470;9.226;2023-03-03T04:26:09;107154.75;;;2.21;100.00
3590;BME280;1809;48.470;9.226;2023-03-03T04:28:35;107165.41;;;2.27;100.00
3590;BME280;1809;48.470;9.226;2023-03-03T04:31:00;105806.47;;;2.24;100.00
3590;BME280;1809;48.470;9.226;2023-03-03T04:33:26;105455.69;;;2.17;100.00
3590;BME280;1809;48.470;9.226;2023-03-03T04:35:51;106132.72;;;2.17;100.00
3590;BME280;1809;48.470;9.226;2023-03-03T04:38:17;105456.56;;;2.17;100.00
3590;BME280;1809;48.470;9.226;2023-03-03T04:40:42;105791.53;;;2.15;100.00
3590;BME280;1809;48.470;9.226;2023-03-03T04:43:08;106138.88;;;2.21;100.00
3590;BME280;1809;48.470;9.226;2023-03-03T04:45:34;106487.16;;;2.26;100.00
3590;BME280;1809;48.470;9.226;2023-03-03T04:48:00;106480.09;;;2.22;100.00
3590;BME280;1809;48.470;9.226;2023-03-03T04:50:26;107167.16;;;2.28;100.00
3590;BME280;1809;48.470;9.226;2023-03-03T04:52:51;106484.50;;;2.25;100.00
3590;BME280;1809;48.470;9.226;2023-03-03T04:55:17;106159.09;;;2.32;100.00
3590;BME280;1809;48.470;9.226;2023-03-03T04:57:42;105125.03;;;2.22;100.00
3590;BME280;1809;48.470;9.226;2023-03-03T05:00:10;105133.75;;;2.27;100.00
3590;BME280;1809;48.470;9.226;2023-03-03T05:02:40;104120.94;;;2.28;100.00
3590;BME280;1809;48.470;9.226;2023-03-03T05:05:07;102404.66;;;2.13;100.00
3590;BME280;1809;48.470;9.226;2023-03-03T05:07:34;103441.59;;;2.27;100.00
3590;BME280;1809;48.470;9.226;2023-03-03T05:09:59;103108.38;;;2.30;100.00
3590;BME280;1809;48.470;9.226;2023-03-03T05:12:24;102771.75;;;2.31;100.00
3590;BME280;1809;48.470;9.226;2023-03-03T05:14:50;101759.53;;;2.32;100.00
3590;BME280;1809;48.470;9.226;2023-03-03T05:17:16;101431.41;;;2.38;100.00
3590;BME280;1809;48.470;9.226;2023-03-03T05:19:41;100397.81;;;2.27;100.00
3590;BME280;1809;48.470;9.226;2023-03-03T05:22:06;101071.47;;;2.25;100.00
3590;BME280;1809;48.470;9.226;2023-03-03T05:24:32;101755.34;;;2.30;100.00
3590;BME280;1809;48.470;9.226;2023-03-03T05:26:57;102086.78;;;2.26;100.00
3590;BME280;1809;48.470;9.226;2023-03-03T05:29:23;103439.03;;;2.25;100.00
3590;BME280;1809;48.470;9.226;2023-03-03T05:31:48;105472.28;;;2.27;100.00
3590;BME280;1809;48.470;9.226;2023-03-03T05:34:14;105808.19;;;2.25;100.00
3590;BME280;1809;48.470;9.226;2023-03-03T05:36:39;106159.97;;;2.33;100.00
3590;BME280;1809;48.470;9.226;2023-03-03T05:39:04;105480.13;;;2.31;100.00
3590;BME280;1809;48.470;9.226;2023-03-03T05:41:30;105484.47;;;2.34;100.00
3590;BME280;1809;48.470;9.226;2023-03-03T05:43:55;105837.13;;;2.42;100.00
3590;BME280;1809;48.470;9.226;2023-03-03T05:46:20;105491.47;;;2.38;100.00
3590;BME280;1809;48.470;9.226;2023-03-03T05:48:46;106189.84;;;2.50;100.00
3590;BME280;1809;48.470;9.226;2023-03-03T05:51:11;103809.16;;;2.44;100.00
3590;BME280;1809;48.470;9.226;2023-03-03T05:53:36;102793.88;;;2.44;100.00
3590;BME280;1809;48.470;9.226;2023-03-03T05:56:02;102450.44;;;2.41;100.00
3590;BME280;1809;48.470;9.226;2023-03-03T05:58:27;102790.47;;;2.42;100.00
3590;BME280;1809;48.470;9.226;2023-03-03T06:00:53;103474.16;;;2.46;100.00
3590;BME280;1809;48.470;9.226;2023-03-03T06:03:21;103474.16;;;2.46;100.00
3590;BME280;1809;48.470;9.226;2023-03-03T06:05:46;103824.63;;;2.53;100.00
3590;BME280;1809;48.470;9.226;2023-03-03T06:08:11;102802.41;;;2.49;100.00
3590;BME280;1809;48.470;9.226;2023-03-03T06:10:37;102462.31;;;2.48;100.00
3590;BME280;1809;48.470;9.226;2023-03-03T06:13:02;102465.69;;;2.50;100.00
3590;BME280;1809;48.470;9.226;2023-03-03T06:15:27;101800.78;;;2.57;100.00
3590;BME280;1809;48.470;9.226;2023-03-03T06:17:53;100770.88;;;2.48;100.00
3590;BME280;1809;48.470;9.226;2023-03-03T06:20:18;101455.72;;;2.53;100.00
3590;BME280;1809;48.470;9.226;2023-03-03T06:22:44;102133.22;;;2.53;100.00
3590;BME280;1809;48.470;9.226;2023-03-03T06:25:09;102492.81;;;2.66;100.00
3590;BME280;1809;48.470;9.226;2023-03-03T06:27:34;101826.88;;;2.72;100.00
3590;BME280;1809;48.470;9.226;2023-03-03T06:30:00;100485.84;;;2.80;100.00
3590;BME280;1809;48.470;9.226;2023-03-03T06:32:25;98110.03;;;2.75;100.00
3590;BME280;1809;48.470;9.226;2023-03-03T06:34:50;97428.28;;;2.71;100.00
3590;BME280;1809;48.470;9.226;2023-03-03T06:37:16;97441.97;;;2.80;100.00
3590;BME280;1809;48.470;9.226;2023-03-03T06:39:41;96779.50;;;2.89;100.00
3590;BME280;1809;48.470;9.226;2023-03-03T06:42:07;95774.22;;;2.94;100.00
3590;BME280;1809;48.470;9.226;2023-03-03T06:44:34;94766.72;;;2.98;100.00
3590;BME280;1809;48.470;9.226;2023-03-03T06:46:59;94095.66;;;3.01;100.00
3590;BME280;1809;48.470;9.226;2023-03-03T06:49:24;93412.28;;;2.96;100.00
3590;BME280;1809;48.470;9.226;2023-03-03T06:51:50;93073.03;;;2.95;100.00
3590;BME280;1809;48.470;9.226;2023-03-03T06:54:20;93423.84;;;3.04;100.00
3590;BME280;1809;48.470;9.226;2023-03-03T06:56:49;92746.03;;;3.02;100.00
3590;BME280;1809;48.470;9.226;2023-03-03T06:59:19;92423.56;;;3.12;100.00
3590;BME280;1809;48.470;9.226;2023-03-03T07:01:47;92778.19;;;3.23;100.00
3590;BME280;1809;48.470;9.226;2023-03-03T07:04:30;90073.50;;;3.21;100.00
3590;BME280;1809;48.470;9.226;2023-03-03T07:06:59;88066.09;;;3.34;100.00
3590;BME280;1809;48.470;9.226;2023-03-03T07:09:31;85386.63;;;3.47;100.00
3590;BME280;1809;48.470;9.226;2023-03-03T07:12:04;81343.94;;;3.49;100.00
3590;BME280;1809;48.470;9.226;2023-03-03T07:14:31;80002.03;;;3.53;100.00
3590;BME280;1809;48.470;9.226;2023-03-03T07:17:04;78313.50;;;3.49;100.00
3590;BME280;1809;48.470;9.226;2023-03-03T07:19:33;75977.66;;;3.64;100.00
3590;BME280;1809;48.470;9.226;2023-03-03T07:22:11;72950.59;;;3.64;100.00
3590;BME280;1809;48.470;9.226;2023-03-03T07:24:38;73626.53;;;3.67;100.00
3590;BME280;1809;48.470;9.226;2023-03-03T07:29:30;71948.25;;;3.69;100.00
3590;BME280;1809;48.470;9.226;2023-03-03T07:31:58;71609.28;;;3.66;100.00
3590;BME280;1809;48.470;9.226;2023-03-03T07:34:29;72303.88;;;3.86;100.00
3590;BME280;1809;48.470;9.226;2023-03-03T07:37:16;69961.16;;;3.94;100.00
3590;BME280;1809;48.470;9.226;2023-03-03T07:39:44;68624.19;;;4.00;100.00
3590;BME280;1809;48.470;9.226;2023-03-03T07:44:41;61595.69;;;4.18;100.00
3590;BME280;1809;48.470;9.226;2023-03-03T07:47:21;56920.41;;;4.36;100.00
3590;BME280;1809;48.470;9.226;2023-03-03T07:49:48;43552.09;;;4.40;100.00
3590;BME280;1809;48.470;9.226;2023-03-03T07:52:39;38885.69;;;4.42;100.00
3590;BME280;1809;48.470;9.226;2023-03-03T07:58:41;34551.50;;;4.31;100.00
3590;BME280;1809;48.470;9.226;2023-03-03T08:01:38;27587.44;;;4.67;100.00
3590;BME280;1809;48.470;9.226;2023-03-03T08:04:12;13005.69;;;4.82;100.00
3590;BME280;1809;48.470;9.226;2023-03-03T08:06:44;4416.13;;;4.94;100.00
3590;BME280;1809;48.470;9.226;2023-03-03T08:14:33;-16310.69;;;5.08;100.00
3590;BME280;1809;48.470;9.226;2023-03-03T08:16:59;-16315.19;;;5.24;100.00
3590;BME280;1809;48.470;9.226;2023-03-03T08:19:25;-16315.06;;;5.24;100.00
3590;BME280;1809;48.470;9.226;2023-03-03T08:21:51;-16316.03;;;5.27;100.00
3590;BME280;1809;48.470;9.226;2023-03-03T08:24:20;-16317.72;;;5.33;100.00
3590;BME280;1809;48.470;9.226;2023-03-03T08:26:46;-16318.00;;;5.34;100.00
3590;BME280;1809;48.470;9.226;2023-03-03T08:29:11;-16311.25;;;5.10;100.00
3590;BME280;1809;48.470;9.226;2023-03-03T08:31:36;-16314.06;;;5.20;100.00
3590;BME280;1809;48.470;9.226;2023-03-03T08:34:02;-16323.94;;;5.56;100.00
3590;BME280;1809;48.470;9.226;2023-03-03T08:36:28;-16324.34;;;5.57;100.00
3590;BME280;1809;48.470;9.226;2023-03-03T08:38:54;-16326.03;;;5.63;100.00
3590;BME280;1809;48.470;9.226;2023-03-03T08:41:19;-16326.19;;;5.64;100.00
3590;BME280;1809;48.470;9.226;2023-03-03T08:43:44;-16326.31;;;5.64;100.00
3590;BME280;1809;48.470;9.226;2023-03-03T08:46:10;-16338.84;;;6.09;100.00
3590;BME280;1809;48.470;9.226;2023-03-03T08:48:36;-16333.78;;;5.91;100.00
3590;BME280;1809;48.470;9.226;2023-03-03T08:51:02;-16335.63;;;5.98;100.00
3590;BME280;1809;48.470;9.226;2023-03-03T08:53:28;-16330.53;;;5.79;100.00
3590;BME280;1809;48.470;9.226;2023-03-03T08:55:53;-16337.72;;;6.05;100.00
3590;BME280;1809;48.470;9.226;2023-03-03T08:58:20;-16331.81;;;5.84;100.00
3590;BME280;1809;48.470;9.226;2023-03-03T09:00:45;-16340.94;;;6.17;100.00
3590;BME280;1809;48.470;9.226;2023-03-03T09:03:11;-16338.00;;;6.06;100.00
3590;BME280;1809;48.470;9.226;2023-03-03T09:05:37;-16340.25;;;6.14;100.00
3590;BME280;1809;48.470;9.226;2023-03-03T09:08:04;-16333.91;;;5.91;100.00
3590;BME280;1809;48.470;9.226;2023-03-03T09:10:29;-16337.16;;;6.03;100.00
3590;BME280;1809;48.470;9.226;2023-03-03T09:12:59;-16339.84;;;6.13;100.00
3590;BME280;1809;48.470;9.226;2023-03-03T09:15:30;-16339.25;;;6.11;100.00
3590;BME280;1809;48.470;9.226;2023-03-03T09:18:21;-16339.97;;;6.13;100.00
3590;BME280;1809;48.470;9.226;2023-03-03T09:20:50;-16344.63;;;6.30;100.00
3590;BME280;1809;48.470;9.226;2023-03-03T09:25:49;-16359.66;;;6.84;100.00
3590;BME280;1809;48.470;9.226;2023-03-03T09:28:31;-16355.72;;;6.70;100.00
3590;BME280;1809;48.470;9.226;2023-03-03T09:30:59;-16353.47;;;6.62;100.00
3590;BME280;1809;48.470;9.226;2023-03-03T09:33:28;-16352.91;;;6.60;100.00
3590;BME280;1809;48.470;9.226;2023-03-03T09:36:22;-16359.38;;;6.83;100.00
3590;BME280;1809;48.470;9.226;2023-03-03T09:38:48;-16361.78;;;6.91;100.00
3590;BME280;1809;48.470;9.226;2023-03-03T09:52:45;-16372.03;;;7.28;100.00
3590;BME280;1809;48.470;9.226;2023-03-03T09:55:23;-16382.44;;;7.66;100.00
3590;BME280;1809;48.470;9.226;2023-03-03T10:00:44;-16381.31;;;7.62;100.00
3590;BME280;1809;48.470;9.226;2023-03-03T10:11:51;-16371.75;;;7.27;100.00
3590;BME280;1809;48.470;9.226;2023-03-03T10:19:52;-16362.47;;;6.94;100.00
3590;BME280;1809;48.470;9.226;2023-03-03T10:22:28;-16365.72;;;7.06;100.00
3590;BME280;1809;48.470;9.226;2023-03-03T10:36:06;-16404.09;;;8.43;100.00
3590;BME280;1809;48.470;9.226;2023-03-03T10:39:14;-16404.66;;;8.45;100.00
3590;BME280;1809;48.470;9.226;2023-03-03T10:42:09;-16398.47;;;8.23;100.00
3590;BME280;1809;48.470;9.226;2023-03-03T10:44:57;-16404.38;;;8.44;100.00
3590;BME280;1809;48.470;9.226;2023-03-03T11:08:55;-16427.28;;;9.27;100.00
3590;BME280;1809;48.470;9.226;2023-03-03T11:11:32;-16414.22;;;8.80;100.00
3590;BME280;1809;48.470;9.226;2023-03-03T11:17:37;-16404.66;;;8.45;100.00
3590;BME280;1809;48.470;9.226;2023-03-03T11:20:37;-16398.47;;;8.23;100.00
3590;BME280;1809;48.470;9.226;2023-03-03T11:23:23;-16392.56;;;8.02;100.00
3590;BME280;1809;48.470;9.226;2023-03-03T11:26:02;-16381.03;;;7.61;100.00
3590;BME280;1809;48.470;9.226;2023-03-03T11:28:47;-16382.72;;;7.67;100.00
3590;BME280;1809;48.470;9.226;2023-03-03T11:37:02;-16382.44;;;7.66;100.00
3590;BME280;1809;48.470;9.226;2023-03-03T11:39:22;-16382.88;;;7.67;100.00
3590;BME280;1809;48.470;9.226;2023-03-03T11:42:29;-16390.03;;;7.93;100.00
3590;BME280;1809;48.470;9.226;2023-03-03T11:44:58;-16391.59;;;7.98;100.00
3590;BME280;1809;48.470;9.226;2023-03-03T11:47:29;-16399.59;;;8.27;100.00
3590;BME280;1809;48.470;9.226;2023-03-03T11:50:01;-16404.94;;;8.46;100.00
3590;BME280;1809;48.470;9.226;2023-03-03T11:55:41;-16400.44;;;8.30;100.00
3590;BME280;1809;48.470;9.226;2023-03-03T11:58:21;-16401.00;;;8.32;100.00
3590;BME280;1809;48.470;9.226;2023-03-03T12:04:03;-16408.03;;;8.57;100.00
3590;BME280;1809;48.470;9.226;2023-03-03T12:06:57;-16412.69;;;8.74;100.00
3590;BME280;1809;48.470;9.226;2023-03-03T12:12:23;-16428.84;;;9.32;100.00
3590;BME280;1809;48.470;9.226;2023-03-03T12:15:03;-16443.88;;;9.86;100.00
3590;BME280;1809;48.470;9.226;2023-03-03T12:26:12;-16440.63;;;9.74;100.00
3590;BME280;1809;48.470;9.226;2023-03-03T12:34:43;-16443.16;;;9.84;100.00
3590;BME280;1809;48.470;9.226;2023-03-03T12:40:02;-16445.13;;;9.91;100.00
3590;BME280;1809;48.470;9.226;2023-03-03T12:42:41;-16435.03;;;9.54;100.00
3590;BME280;1809;48.470;9.226;2023-03-03T12:48:18;-16446.81;;;9.97;100.00
3590;BME280;1809;48.470;9.226;2023-03-03T12:51:28;-16448.22;;;10.02;100.00
3590;BME280;1809;48.470;9.226;2023-03-03T12:56:39;-16431.94;;;9.43;100.00
3590;BME280;1809;48.470;9.226;2023-03-03T13:15:26;-16445.97;;;9.94;100.00
3590;BME280;1809;48.470;9.226;2023-03-03T13:20:48;-16443.31;;;9.84;100.00
3590;BME280;1809;48.470;9.226;2023-03-03T13:26:04;-16462.28;;;10.52;100.00
3590;BME280;1809;48.470;9.226;2023-03-03T13:31:26;-16468.75;;;10.75;100.00
3590;BME280;1809;48.470;9.226;2023-03-03T13:33:55;-16473.94;;;10.94;100.00
3590;BME280;1809;48.470;9.226;2023-03-03T13:36:40;-16470.41;;;10.82;100.00
3590;BME280;1809;48.470;9.226;2023-03-03T13:39:29;-16468.44;;;10.74;100.00
3590;BME280;1809;48.470;9.226;2023-03-03T13:44:42;-16469.03;;;10.76;100.00
3590;BME280;1809;48.470;9.226;2023-03-03T13:50:03;-16464.66;;;10.61;100.00
3590;BME280;1809;48.470;9.226;2023-03-03T13:52:43;-16466.34;;;10.67;100.00
3590;BME280;1809;48.470;9.226;2023-03-03T14:24:21;-16452.16;;;10.16;100.00
3590;BME280;1809;48.470;9.226;2023-03-03T14:26:55;-16450.19;;;10.09;100.00
3590;BME280;1809;48.470;9.226;2023-03-03T14:31:59;-16455.53;;;10.28;100.00
3590;BME280;1809;48.470;9.226;2023-03-03T14:37:29;-16459.75;;;10.43;100.00
3590;BME280;1809;48.470;9.226;2023-03-03T14:40:21;-16456.09;;;10.30;100.00
3590;BME280;1809;48.470;9.226;2023-03-03T14:42:55;-16444.56;;;9.89;100.00
3590;BME280;1809;48.470;9.226;2023-03-03T14:45:38;-16446.25;;;9.95;100.00
3590;BME280;1809;48.470;9.226;2023-03-03T14:48:22;-16442.59;;;9.82;100.00
3590;BME280;1809;48.470;9.226;2023-03-03T14:50:53;-16439.38;;;9.70;100.00
3590;BME280;1809;48.470;9.226;2023-03-03T14:55:53;-16440.91;;;9.76;100.00
3590;BME280;1809;48.470;9.226;2023-03-03T14:58:28;-16440.06;;;9.72;100.00
3590;BME280;1809;48.470;9.226;2023-03-03T15:01:33;-16438.38;;;9.66;100.00
3590;BME280;1809;48.470;9.226;2023-03-03T15:06:32;-16431.66;;;9.42;100.00
3590;BME280;1809;48.470;9.226;2023-03-03T15:11:45;-16428.41;;;9.31;100.00
3590;BME280;1809;48.470;9.226;2023-03-03T15:14:13;-16423.06;;;9.11;100.00
3590;BME280;1809;48.470;9.226;2023-03-03T15:16:39;-16423.22;;;9.12;100.00
3590;BME280;1809;48.470;9.226;2023-03-03T15:19:39;-16420.97;;;9.04;100.00
3590;BME280;1809;48.470;9.226;2023-03-03T15:27:48;-16415.91;;;8.86;100.00
3590;BME280;1809;48.470;9.226;2023-03-03T15:35:33;-16417.59;;;8.92;100.00
3590;BME280;1809;48.470;9.226;2023-03-03T15:38:03;-16415.22;;;8.83;100.00
3590;BME280;1809;48.470;9.226;2023-03-03T15:40:55;-16416.75;;;8.89;100.00
3590;BME280;1809;48.470;9.226;2023-03-03T15:43:38;-16416.19;;;8.87;100.00
3590;BME280;1809;48.470;9.226;2023-03-03T15:48:56;-16415.63;;;8.85;100.00
3590;BME280;1809;48.470;9.226;2023-03-03T15:54:41;-16417.19;;;8.90;100.00
3590;BME280;1809;48.470;9.226;2023-03-03T15:57:25;-16413.94;;;8.79;100.00
3590;BME280;1809;48.470;9.226;2023-03-03T16:05:16;-16409.44;;;8.62;100.00
3590;BME280;1809;48.470;9.226;2023-03-03T16:13:20;-16406.91;;;8.53;100.00
3590;BME280;1809;48.470;9.226;2023-03-03T16:16:01;-16406.06;;;8.50;100.00
3590;BME280;1809;48.470;9.226;2023-03-03T16:23:50;-16399.88;;;8.28;100.00
3590;BME280;1809;48.470;9.226;2023-03-03T16:32:31;-16393.69;;;8.06;100.00
3590;BME280;1809;48.470;9.226;2023-03-03T16:38:07;-16386.94;;;7.82;100.00
3590;BME280;1809;48.470;9.226;2023-03-03T16:46:27;-16390.88;;;7.96;100.00
3590;BME280;1809;48.470;9.226;2023-03-03T16:49:20;-16419.56;;;8.99;100.00
3590;BME280;1809;48.470;9.226;2023-03-03T16:52:06;-16428.41;;;9.31;100.00
3590;BME280;1809;48.470;9.226;2023-03-03T16:57:27;-16404.38;;;8.44;100.00
3590;BME280;1809;48.470;9.226;2023-03-03T17:00:13;-16391.44;;;7.98;100.00
3590;BME280;1809;48.470;9.226;2023-03-03T17:05:58;-16379.34;;;7.54;100.00
3590;BME280;1809;48.470;9.226;2023-03-03T17:24:43;-16342.63;;;6.23;100.00
3590;BME280;1809;48.470;9.226;2023-03-03T17:30:38;-16334.91;;;5.95;100.00
3590;BME280;1809;48.470;9.226;2023-03-03T17:38:57;-16325.34;;;5.61;100.00
3590;BME280;1809;48.470;9.226;2023-03-03T17:42:29;-14344.91;;;5.49;100.00
3590;BME280;1809;48.470;9.226;2023-03-03T17:44:33;-3828.38;;;5.48;100.00
3590;BME280;1809;48.470;9.226;2023-03-03T17:47:08;128.06;;;5.33;100.00
3590;BME280;1809;48.470;9.226;2023-03-03T17:55:52;32586.16;;;4.90;100.00
3590;BME280;1809;48.470;9.226;2023-03-03T18:15:43;65963.94;;;4.24;100.00
3590;BME280;1809;48.470;9.226;2023-03-03T18:18:34;68307.28;;;4.17;100.00
3590;BME280;1809;48.470;9.226;2023-03-03T18:21:09;68965.72;;;4.05;100.00
3590;BME280;1809;48.470;9.226;2023-03-03T18:23:42;71636.88;;;3.90;100.00
3590;BME280;1809;48.470;9.226;2023-03-03T18:26:29;74653.06;;;3.82;100.00
3590;BME280;1809;48.470;9.226;2023-03-03T18:29:26;78349.53;;;3.77;100.00
3590;BME280;1809;48.470;9.226;2023-03-03T18:37:32;83032.81;;;3.52;100.00
3590;BME280;1809;48.470;9.226;2023-03-03T18:42:39;90429.72;;;3.34;100.00
3590;BME280;1809;48.470;9.226;2023-03-03T18:48:10;93438.50;;;3.13;100.00
3590;BME280;1809;48.470;9.226;2023-03-03T18:50:49;94790.19;;;3.13;100.00
3590;BME280;1809;48.470;9.226;2023-03-03T18:53:29;95447.31;;;3.01;100.00